West Point, NE (68788)

4:49 AM CDT on June 25, 2017 (GMT -0500)
Prairie Oaks Lane | | Change Station

Elev 1388 ft 41.91 °N, 96.64 °W | Updated 24 seconds ago

Partly Cloudy
Partly Cloudy
46.2 °F
Feels Like 46 °F
N
0.0
Wind Variable Wind from NE
Gusts 0.0 mph

Today
High -- | Low -- °F
--% Chance of Precip.
Yesterday
High -- | Low -- °F
Precip. -- in
Pressure 30.24 in
Visibility 10.0 miles
Clouds Clear
Windchill 46 °F
Dew Point 44 °F
Humidity 91%
Rainfall 0.00 in
Snow Depth Not available.
5:53 AM 9:05 PM
Waxing Crescent, 3% visible
METAR KTQE 250854Z AUTO 29007KT 10SM CLR 11/05 A3026 RMK AO2 SLP238 T01110050 53012
Pressure 30.24 in
Visibility 10.0 miles
Clouds Clear
Windchill 46 °F
Dew Point 44 °F
Humidity 91%
Rainfall 0.00 in
Snow Depth Not available.
5:53 AM 9:05 PM
Waxing Crescent, 3% visible
METAR KTQE 250854Z AUTO 29007KT 10SM CLR 11/05 A3026 RMK AO2 SLP238 T01110050 53012

Get Severe Weather Alerts

Thanks for signing up!

Be on the lookout for a verification email in your inbox.

You'll start receiving the daily forecast at 6 AM.

×

10-Day Weather Forecast

Almanac

Astronomy

Jun. 25, 2017 Rise Set
Actual Time
Civil Twilight
Nautical Twilight
Astronomical Twilight
Moon
Length of Visible Light
Length of Day
Tomorrow will be .
, % of the Moon is Illuminated

Today's Extremes

State Highs State Lows

Community

WunderPhotos

Category 6

Welcome to Category 6. This is the collective home for Weather Underground's featured writeups by Dr. Jeff Masters (right), Bob Henson (left), Chris Burt, and other regular contributors.

Nearby

Air Quality

  Air Quality AQ Index Pollutant
Not available.

Snow Depth

Station Depth Elevation

Earthquake Activity

City Distance Mag. Time & Date
Minimum magnitude displayed is 2.5.

Coastal Water Temperatures

Place Temperature

Stations

Nearby Weather Stations

Station Location Temp. Windchill Dew Point Humidity Wind Precip. Elev Updated Type
                   

Watches & Warnings

There are currently no watches in effect.